Aviation Digital Data Service (ADDS)

Output produced by TAFs form (0930 UTC 25 November 2017)
found at http://www.aviationweather.gov/adds/tafs/
 
METAR text: RJSR 250900Z 15004KT 9999 FEW030 SCT050 BKN/// M01/M01 Q1025
Conditions at: RJSR (ODATE-NOSHIRO , JP) observed 0900 UTC 25 November 2017
Temperature: -1.0°C (30°F)
Dewpoint: -1.0°C (30°F) [RH = 100%]
Pressure (altimeter): 30.27 inches Hg (1025.0 mb)
Winds: from the SSE (150 degrees) at 5 MPH (4 knots; 2.1 m/s)
Visibility: 6 or more miles (10+ km)
Ceiling: at least 12,000 feet AGL
Clouds: few clouds at 3000 feet AGL
scattered clouds at 5000 feet AGL
Weather: no significant weather observed at this time